sensor_id;sensor_type;location;lat;lon;timestamp;P1;P2;P0
47810;PMS5003;33575;52.600;7.318;2023-04-24T00:01:25;6;5;
47810;PMS5003;33575;52.600;7.318;2023-04-24T00:03:57;4;4;
47810;PMS5003;33575;52.600;7.318;2023-04-24T00:06:26;5;5;
47810;PMS5003;33575;52.600;7.318;2023-04-24T00:08:57;5;5;
47810;PMS5003;33575;52.600;7.318;2023-04-24T00:11:27;4;4;
47810;PMS5003;33575;52.600;7.318;2023-04-24T00:13:58;6;6;
47810;PMS5003;33575;52.600;7.318;2023-04-24T00:16:29;5;5;
47810;PMS5003;33575;52.600;7.318;2023-04-24T00:18:59;7;6;
47810;PMS5003;33575;52.600;7.318;2023-04-24T00:21:30;7;7;
47810;PMS5003;33575;52.600;7.318;2023-04-24T00:24:00;8;8;
47810;PMS5003;33575;52.600;7.318;2023-04-24T00:26:31;6;6;
47810;PMS5003;33575;52.600;7.318;2023-04-24T00:29:01;6;6;
47810;PMS5003;33575;52.600;7.318;2023-04-24T00:31:32;8;7;
47810;PMS5003;33575;52.600;7.318;2023-04-24T00:34:03;6;6;
47810;PMS5003;33575;52.600;7.318;2023-04-24T00:36:33;7;6;
47810;PMS5003;33575;52.600;7.318;2023-04-24T00:39:04;7;7;
47810;PMS5003;33575;52.600;7.318;2023-04-24T00:41:34;7;7;
47810;PMS5003;33575;52.600;7.318;2023-04-24T00:44:05;7;7;
47810;PMS5003;33575;52.600;7.318;2023-04-24T00:46:35;9;9;
47810;PMS5003;33575;52.600;7.318;2023-04-24T00:49:06;8;7;
47810;PMS5003;33575;52.600;7.318;2023-04-24T00:51:36;9;9;
47810;PMS5003;33575;52.600;7.318;2023-04-24T00:54:07;9;8;
47810;PMS5003;33575;52.600;7.318;2023-04-24T00:56:38;9;9;
47810;PMS5003;33575;52.600;7.318;2023-04-24T00:59:08;8;7;
47810;PMS5003;33575;52.600;7.318;2023-04-24T01:01:39;8;7;
47810;PMS5003;33575;52.600;7.318;2023-04-24T01:04:10;10;9;
47810;PMS5003;33575;52.600;7.318;2023-04-24T01:06:40;11;9;
47810;PMS5003;33575;52.600;7.318;2023-04-24T01:09:10;9;9;
47810;PMS5003;33575;52.600;7.318;2023-04-24T01:11:41;9;9;
47810;PMS5003;33575;52.600;7.318;2023-04-24T01:14:11;9;9;
47810;PMS5003;33575;52.600;7.318;2023-04-24T01:16:42;7;7;
47810;PMS5003;33575;52.600;7.318;2023-04-24T01:19:13;8;8;
47810;PMS5003;33575;52.600;7.318;2023-04-24T01:21:43;9;9;
47810;PMS5003;33575;52.600;7.318;2023-04-24T01:24:14;7;7;
47810;PMS5003;33575;52.600;7.318;2023-04-24T01:26:44;7;7;
47810;PMS5003;33575;52.600;7.318;2023-04-24T01:29:15;9;8;
47810;PMS5003;33575;52.600;7.318;2023-04-24T01:31:45;9;8;
47810;PMS5003;33575;52.600;7.318;2023-04-24T01:34:16;9;7;
47810;PMS5003;33575;52.600;7.318;2023-04-24T01:36:46;8;8;
47810;PMS5003;33575;52.600;7.318;2023-04-24T01:39:17;12;10;
47810;PMS5003;33575;52.600;7.318;2023-04-24T01:41:48;7;7;
47810;PMS5003;33575;52.600;7.318;2023-04-24T01:44:18;9;8;
47810;PMS5003;33575;52.600;7.318;2023-04-24T01:46:49;12;11;
47810;PMS5003;33575;52.600;7.318;2023-04-24T01:49:19;12;11;
47810;PMS5003;33575;52.600;7.318;2023-04-24T01:51:50;12;10;
47810;PMS5003;33575;52.600;7.318;2023-04-24T01:54:20;11;10;
47810;PMS5003;33575;52.600;7.318;2023-04-24T01:56:51;11;11;
47810;PMS5003;33575;52.600;7.318;2023-04-24T01:59:21;13;11;
47810;PMS5003;33575;52.600;7.318;2023-04-24T02:01:52;11;11;
47810;PMS5003;33575;52.600;7.318;2023-04-24T02:04:22;15;11;
47810;PMS5003;33575;52.600;7.318;2023-04-24T02:06:53;12;10;
47810;PMS5003;33575;52.600;7.318;2023-04-24T02:09:24;11;11;
47810;PMS5003;33575;52.600;7.318;2023-04-24T02:11:54;15;12;
47810;PMS5003;33575;52.600;7.318;2023-04-24T02:14:24;12;11;
47810;PMS5003;33575;52.600;7.318;2023-04-24T02:16:55;14;13;
47810;PMS5003;33575;52.600;7.318;2023-04-24T02:19:25;16;16;
47810;PMS5003;33575;52.600;7.318;2023-04-24T02:21:56;17;17;
47810;PMS5003;33575;52.600;7.318;2023-04-24T02:24:26;16;16;
47810;PMS5003;33575;52.600;7.318;2023-04-24T02:26:56;15;13;
47810;PMS5003;33575;52.600;7.318;2023-04-24T02:29:27;15;14;
47810;PMS5003;33575;52.600;7.318;2023-04-24T02:31:58;13;13;
47810;PMS5003;33575;52.600;7.318;2023-04-24T02:34:28;14;13;
47810;PMS5003;33575;52.600;7.318;2023-04-24T02:36:59;16;14;
47810;PMS5003;33575;52.600;7.318;2023-04-24T02:39:29;14;13;
47810;PMS5003;33575;52.600;7.318;2023-04-24T02:41:59;14;14;
47810;PMS5003;33575;52.600;7.318;2023-04-24T02:44:30;13;13;
47810;PMS5003;33575;52.600;7.318;2023-04-24T02:47:00;11;11;
47810;PMS5003;33575;52.600;7.318;2023-04-24T02:49:31;13;13;
47810;PMS5003;33575;52.600;7.318;2023-04-24T02:52:01;12;12;
47810;PMS5003;33575;52.600;7.318;2023-04-24T02:54:31;16;15;
47810;PMS5003;33575;52.600;7.318;2023-04-24T02:57:02;17;15;
47810;PMS5003;33575;52.600;7.318;2023-04-24T02:59:32;11;10;
47810;PMS5003;33575;52.600;7.318;2023-04-24T03:02:03;13;12;
47810;PMS5003;33575;52.600;7.318;2023-04-24T03:04:34;16;15;
47810;PMS5003;33575;52.600;7.318;2023-04-24T03:07:04;12;12;
47810;PMS5003;33575;52.600;7.318;2023-04-24T03:09:34;12;12;
47810;PMS5003;33575;52.600;7.318;2023-04-24T03:12:05;13;13;
47810;PMS5003;33575;52.600;7.318;2023-04-24T03:14:35;13;11;
47810;PMS5003;33575;52.600;7.318;2023-04-24T03:17:06;14;13;
47810;PMS5003;33575;52.600;7.318;2023-04-24T03:19:36;11;11;
47810;PMS5003;33575;52.600;7.318;2023-04-24T03:22:07;10;10;
47810;PMS5003;33575;52.600;7.318;2023-04-24T03:24:37;14;14;
47810;PMS5003;33575;52.600;7.318;2023-04-24T03:27:08;14;14;
47810;PMS5003;33575;52.600;7.318;2023-04-24T03:29:38;14;13;
47810;PMS5003;33575;52.600;7.318;2023-04-24T03:32:08;16;15;
47810;PMS5003;33575;52.600;7.318;2023-04-24T03:34:39;16;15;
47810;PMS5003;33575;52.600;7.318;2023-04-24T03:37:10;17;15;
47810;PMS5003;33575;52.600;7.318;2023-04-24T03:39:40;20;18;
47810;PMS5003;33575;52.600;7.318;2023-04-24T03:42:10;18;17;
47810;PMS5003;33575;52.600;7.318;2023-04-24T03:44:41;16;14;
47810;PMS5003;33575;52.600;7.318;2023-04-24T03:47:11;17;17;
47810;PMS5003;33575;52.600;7.318;2023-04-24T03:49:43;22;18;
47810;PMS5003;33575;52.600;7.318;2023-04-24T03:52:13;18;15;
47810;PMS5003;33575;52.600;7.318;2023-04-24T03:54:43;17;17;
47810;PMS5003;33575;52.600;7.318;2023-04-24T03:57:13;15;15;
47810;PMS5003;33575;52.600;7.318;2023-04-24T03:59:44;20;18;
47810;PMS5003;33575;52.600;7.318;2023-04-24T04:02:15;20;19;
47810;PMS5003;33575;52.600;7.318;2023-04-24T04:04:45;18;18;
47810;PMS5003;33575;52.600;7.318;2023-04-24T04:07:15;24;24;
47810;PMS5003;33575;52.600;7.318;2023-04-24T04:09:46;19;18;
47810;PMS5003;33575;52.600;7.318;2023-04-24T04:12:16;21;20;
47810;PMS5003;33575;52.600;7.318;2023-04-24T04:14:47;20;20;
47810;PMS5003;33575;52.600;7.318;2023-04-24T04:17:17;19;18;
47810;PMS5003;33575;52.600;7.318;2023-04-24T04:19:47;21;20;
47810;PMS5003;33575;52.600;7.318;2023-04-24T04:22:18;17;17;
47810;PMS5003;33575;52.600;7.318;2023-04-24T04:24:49;26;23;
47810;PMS5003;33575;52.600;7.318;2023-04-24T04:27:19;22;21;
47810;PMS5003;33575;52.600;7.318;2023-04-24T04:29:50;19;18;
47810;PMS5003;33575;52.600;7.318;2023-04-24T04:32:20;18;16;
47810;PMS5003;33575;52.600;7.318;2023-04-24T04:34:51;20;18;
47810;PMS5003;33575;52.600;7.318;2023-04-24T04:37:21;23;23;
47810;PMS5003;33575;52.600;7.318;2023-04-24T04:39:51;18;18;
47810;PMS5003;33575;52.600;7.318;2023-04-24T04:42:22;17;16;
47810;PMS5003;33575;52.600;7.318;2023-04-24T04:44:52;26;24;
47810;PMS5003;33575;52.600;7.318;2023-04-24T04:47:23;20;19;
47810;PMS5003;33575;52.600;7.318;2023-04-24T04:49:53;19;17;
47810;PMS5003;33575;52.600;7.318;2023-04-24T04:52:24;20;17;
47810;PMS5003;33575;52.600;7.318;2023-04-24T04:54:54;20;19;
47810;PMS5003;33575;52.600;7.318;2023-04-24T04:57:25;19;19;
47810;PMS5003;33575;52.600;7.318;2023-04-24T04:59:55;22;21;
47810;PMS5003;33575;52.600;7.318;2023-04-24T05:02:26;19;19;
47810;PMS5003;33575;52.600;7.318;2023-04-24T05:04:57;25;24;
47810;PMS5003;33575;52.600;7.318;2023-04-24T05:07:27;21;21;
47810;PMS5003;33575;52.600;7.318;2023-04-24T05:09:58;20;20;
47810;PMS5003;33575;52.600;7.318;2023-04-24T05:12:28;21;21;
47810;PMS5003;33575;52.600;7.318;2023-04-24T05:14:59;21;20;
47810;PMS5003;33575;52.600;7.318;2023-04-24T05:17:30;24;21;
47810;PMS5003;33575;52.600;7.318;2023-04-24T05:20:00;21;20;
47810;PMS5003;33575;52.600;7.318;2023-04-24T05:22:31;26;25;
47810;PMS5003;33575;52.600;7.318;2023-04-24T05:25:01;27;26;
47810;PMS5003;33575;52.600;7.318;2023-04-24T05:35:04;23;21;
47810;PMS5003;33575;52.600;7.318;2023-04-24T05:37:34;19;19;
47810;PMS5003;33575;52.600;7.318;2023-04-24T05:40:04;24;22;
47810;PMS5003;33575;52.600;7.318;2023-04-24T05:42:34;23;23;
47810;PMS5003;33575;52.600;7.318;2023-04-24T05:45:06;29;29;
47810;PMS5003;33575;52.600;7.318;2023-04-24T05:47:36;30;25;
47810;PMS5003;33575;52.600;7.318;2023-04-24T05:50:07;30;27;
47810;PMS5003;33575;52.600;7.318;2023-04-24T05:52:37;27;27;
47810;PMS5003;33575;52.600;7.318;2023-04-24T05:55:08;25;24;
47810;PMS5003;33575;52.600;7.318;2023-04-24T05:57:39;24;22;
47810;PMS5003;33575;52.600;7.318;2023-04-24T06:00:09;25;24;
47810;PMS5003;33575;52.600;7.318;2023-04-24T06:02:40;24;23;
47810;PMS5003;33575;52.600;7.318;2023-04-24T06:05:10;32;29;
47810;PMS5003;33575;52.600;7.318;2023-04-24T06:07:40;26;26;
47810;PMS5003;33575;52.600;7.318;2023-04-24T06:10:11;23;22;
47810;PMS5003;33575;52.600;7.318;2023-04-24T06:12:42;28;28;
47810;PMS5003;33575;52.600;7.318;2023-04-24T06:15:12;26;23;
47810;PMS5003;33575;52.600;7.318;2023-04-24T06:17:43;32;31;
47810;PMS5003;33575;52.600;7.318;2023-04-24T06:20:14;30;29;
47810;PMS5003;33575;52.600;7.318;2023-04-24T06:22:44;27;25;
47810;PMS5003;33575;52.600;7.318;2023-04-24T06:25:14;30;28;
47810;PMS5003;33575;52.600;7.318;2023-04-24T06:27:45;25;25;
47810;PMS5003;33575;52.600;7.318;2023-04-24T06:30:15;23;22;
47810;PMS5003;33575;52.600;7.318;2023-04-24T06:32:46;24;22;
47810;PMS5003;33575;52.600;7.318;2023-04-24T06:35:17;28;26;
47810;PMS5003;33575;52.600;7.318;2023-04-24T06:37:47;24;23;
47810;PMS5003;33575;52.600;7.318;2023-04-24T06:40:18;27;25;
47810;PMS5003;33575;52.600;7.318;2023-04-24T06:42:48;29;28;
47810;PMS5003;33575;52.600;7.318;2023-04-24T06:45:18;23;21;
47810;PMS5003;33575;52.600;7.318;2023-04-24T06:47:49;23;22;
47810;PMS5003;33575;52.600;7.318;2023-04-24T06:50:20;26;25;
47810;PMS5003;33575;52.600;7.318;2023-04-24T06:52:50;25;21;
47810;PMS5003;33575;52.600;7.318;2023-04-24T06:55:21;24;22;
47810;PMS5003;33575;52.600;7.318;2023-04-24T06:57:51;26;26;
47810;PMS5003;33575;52.600;7.318;2023-04-24T07:00:21;21;21;
47810;PMS5003;33575;52.600;7.318;2023-04-24T07:02:52;27;25;
47810;PMS5003;33575;52.600;7.318;2023-04-24T07:05:22;33;31;
47810;PMS5003;33575;52.600;7.318;2023-04-24T07:07:52;23;22;
47810;PMS5003;33575;52.600;7.318;2023-04-24T07:10:23;28;27;
47810;PMS5003;33575;52.600;7.318;2023-04-24T07:12:53;26;24;
47810;PMS5003;33575;52.600;7.318;2023-04-24T07:15:24;24;23;
47810;PMS5003;33575;52.600;7.318;2023-04-24T07:17:54;28;28;
47810;PMS5003;33575;52.600;7.318;2023-04-24T07:20:25;22;21;
47810;PMS5003;33575;52.600;7.318;2023-04-24T07:22:55;21;21;
47810;PMS5003;33575;52.600;7.318;2023-04-24T07:25:26;27;25;
47810;PMS5003;33575;52.600;7.318;2023-04-24T07:27:57;26;24;
47810;PMS5003;33575;52.600;7.318;2023-04-24T07:30:27;24;24;
47810;PMS5003;33575;52.600;7.318;2023-04-24T07:32:58;24;22;
47810;PMS5003;33575;52.600;7.318;2023-04-24T07:35:28;20;20;
47810;PMS5003;33575;52.600;7.318;2023-04-24T07:37:59;25;22;
47810;PMS5003;33575;52.600;7.318;2023-04-24T07:40:29;19;18;
47810;PMS5003;33575;52.600;7.318;2023-04-24T07:43:00;18;18;
47810;PMS5003;33575;52.600;7.318;2023-04-24T07:45:30;21;20;
47810;PMS5003;33575;52.600;7.318;2023-04-24T07:48:01;28;26;
47810;PMS5003;33575;52.600;7.318;2023-04-24T07:50:31;21;21;
47810;PMS5003;33575;52.600;7.318;2023-04-24T07:53:02;24;22;
47810;PMS5003;33575;52.600;7.318;2023-04-24T07:55:33;22;20;
47810;PMS5003;33575;52.600;7.318;2023-04-24T07:58:03;19;17;
47810;PMS5003;33575;52.600;7.318;2023-04-24T08:00:34;19;18;
47810;PMS5003;33575;52.600;7.318;2023-04-24T08:03:04;17;17;
47810;PMS5003;33575;52.600;7.318;2023-04-24T08:05:35;21;20;
47810;PMS5003;33575;52.600;7.318;2023-04-24T08:08:05;21;19;
47810;PMS5003;33575;52.600;7.318;2023-04-24T08:10:35;19;18;
47810;PMS5003;33575;52.600;7.318;2023-04-24T08:13:06;20;18;
47810;PMS5003;33575;52.600;7.318;2023-04-24T08:15:36;20;19;
47810;PMS5003;33575;52.600;7.318;2023-04-24T08:18:07;17;17;
47810;PMS5003;33575;52.600;7.318;2023-04-24T08:20:37;17;16;
47810;PMS5003;33575;52.600;7.318;2023-04-24T08:23:08;17;16;
47810;PMS5003;33575;52.600;7.318;2023-04-24T08:25:39;18;18;
47810;PMS5003;33575;52.600;7.318;2023-04-24T08:28:09;18;17;
47810;PMS5003;33575;52.600;7.318;2023-04-24T08:30:40;17;16;
47810;PMS5003;33575;52.600;7.318;2023-04-24T08:33:11;19;18;
47810;PMS5003;33575;52.600;7.318;2023-04-24T08:35:41;17;16;
47810;PMS5003;33575;52.600;7.318;2023-04-24T08:38:12;19;19;
47810;PMS5003;33575;52.600;7.318;2023-04-24T08:40:42;17;16;
47810;PMS5003;33575;52.600;7.318;2023-04-24T08:43:13;17;17;
47810;PMS5003;33575;52.600;7.318;2023-04-24T08:45:44;15;14;
47810;PMS5003;33575;52.600;7.318;2023-04-24T08:48:19;20;19;
47810;PMS5003;33575;52.600;7.318;2023-04-24T08:50:45;15;15;
47810;PMS5003;33575;52.600;7.318;2023-04-24T08:53:15;14;14;
47810;PMS5003;33575;52.600;7.318;2023-04-24T08:55:46;13;13;
47810;PMS5003;33575;52.600;7.318;2023-04-24T08:58:16;18;17;
47810;PMS5003;33575;52.600;7.318;2023-04-24T09:00:46;12;12;
47810;PMS5003;33575;52.600;7.318;2023-04-24T09:03:18;13;13;
47810;PMS5003;33575;52.600;7.318;2023-04-24T09:05:48;11;11;
47810;PMS5003;33575;52.600;7.318;2023-04-24T09:08:19;8;8;
47810;PMS5003;33575;52.600;7.318;2023-04-24T09:10:51;9;9;
47810;PMS5003;33575;52.600;7.318;2023-04-24T09:13:20;11;10;
47810;PMS5003;33575;52.600;7.318;2023-04-24T09:15:50;9;9;
47810;PMS5003;33575;52.600;7.318;2023-04-24T09:18:21;9;9;
47810;PMS5003;33575;52.600;7.318;2023-04-24T09:23:22;11;9;
47810;PMS5003;33575;52.600;7.318;2023-04-24T09:25:54;9;9;
47810;PMS5003;33575;52.600;7.318;2023-04-24T09:28:29;8;8;
47810;PMS5003;33575;52.600;7.318;2023-04-24T09:33:24;6;6;
47810;PMS5003;33575;52.600;7.318;2023-04-24T09:35:55;4;4;
47810;PMS5003;33575;52.600;7.318;2023-04-24T09:40:58;2;2;
47810;PMS5003;33575;52.600;7.318;2023-04-24T09:43:26;3;3;
47810;PMS5003;33575;52.600;7.318;2023-04-24T09:45:59;4;4;
47810;PMS5003;33575;52.600;7.318;2023-04-24T09:48:31;4;4;
47810;PMS5003;33575;52.600;7.318;2023-04-24T09:50:59;7;6;
47810;PMS5003;33575;52.600;7.318;2023-04-24T09:53:29;4;4;
47810;PMS5003;33575;52.600;7.318;2023-04-24T09:56:02;6;5;
47810;PMS5003;33575;52.600;7.318;2023-04-24T09:58:30;8;8;
47810;PMS5003;33575;52.600;7.318;2023-04-24T10:01:01;8;8;
47810;PMS5003;33575;52.600;7.318;2023-04-24T10:03:31;11;11;
47810;PMS5003;33575;52.600;7.318;2023-04-24T10:06:02;11;11;
47810;PMS5003;33575;52.600;7.318;2023-04-24T10:08:33;13;11;
47810;PMS5003;33575;52.600;7.318;2023-04-24T10:11:03;9;8;
47810;PMS5003;33575;52.600;7.318;2023-04-24T10:13:33;9;8;
47810;PMS5003;33575;52.600;7.318;2023-04-24T10:16:04;10;10;
47810;PMS5003;33575;52.600;7.318;2023-04-24T10:18:34;9;9;
47810;PMS5003;33575;52.600;7.318;2023-04-24T10:21:05;13;12;
47810;PMS5003;33575;52.600;7.318;2023-04-24T10:23:35;12;11;
47810;PMS5003;33575;52.600;7.318;2023-04-24T10:26:05;15;14;
47810;PMS5003;33575;52.600;7.318;2023-04-24T10:28:36;19;17;
47810;PMS5003;33575;52.600;7.318;2023-04-24T10:31:06;26;23;
47810;PMS5003;33575;52.600;7.318;2023-04-24T10:33:36;24;23;
47810;PMS5003;33575;52.600;7.318;2023-04-24T10:36:07;26;24;
47810;PMS5003;33575;52.600;7.318;2023-04-24T10:38:37;26;23;
47810;PMS5003;33575;52.600;7.318;2023-04-24T10:41:08;29;28;
47810;PMS5003;33575;52.600;7.318;2023-04-24T10:43:37;29;28;
47810;PMS5003;33575;52.600;7.318;2023-04-24T10:46:08;26;24;
47810;PMS5003;33575;52.600;7.318;2023-04-24T10:48:41;23;23;
47810;PMS5003;33575;52.600;7.318;2023-04-24T10:51:11;24;23;
47810;PMS5003;33575;52.600;7.318;2023-04-24T10:53:39;23;20;
47810;PMS5003;33575;52.600;7.318;2023-04-24T10:56:10;26;24;
47810;PMS5003;33575;52.600;7.318;2023-04-24T10:58:41;25;23;
47810;PMS5003;33575;52.600;7.318;2023-04-24T11:03:41;24;22;
47810;PMS5003;33575;52.600;7.318;2023-04-24T11:06:11;20;20;
47810;PMS5003;33575;52.600;7.318;2023-04-24T11:08:43;16;16;
47810;PMS5003;33575;52.600;7.318;2023-04-24T11:11:12;24;22;
47810;PMS5003;33575;52.600;7.318;2023-04-24T11:16:13;23;17;
47810;PMS5003;33575;52.600;7.318;2023-04-24T11:18:43;21;21;
47810;PMS5003;33575;52.600;7.318;2023-04-24T11:21:15;19;18;
47810;PMS5003;33575;52.600;7.318;2023-04-24T11:23:44;19;18;
47810;PMS5003;33575;52.600;7.318;2023-04-24T11:26:17;22;20;
47810;PMS5003;33575;52.600;7.318;2023-04-24T11:28:45;20;18;
47810;PMS5003;33575;52.600;7.318;2023-04-24T11:33:45;14;14;
47810;PMS5003;33575;52.600;7.318;2023-04-24T11:36:16;18;16;
47810;PMS5003;33575;52.600;7.318;2023-04-24T11:38:47;13;10;
47810;PMS5003;33575;52.600;7.318;2023-04-24T11:41:18;12;10;
47810;PMS5003;33575;52.600;7.318;2023-04-24T11:43:48;12;11;
47810;PMS5003;33575;52.600;7.318;2023-04-24T11:46:20;10;9;
47810;PMS5003;33575;52.600;7.318;2023-04-24T11:48:49;10;8;
47810;PMS5003;33575;52.600;7.318;2023-04-24T11:51:20;10;10;
47810;PMS5003;33575;52.600;7.318;2023-04-24T11:53:55;11;11;
47810;PMS5003;33575;52.600;7.318;2023-04-24T11:56:21;13;11;
47810;PMS5003;33575;52.600;7.318;2023-04-24T11:58:52;9;8;
47810;PMS5003;33575;52.600;7.318;2023-04-24T12:01:22;10;10;
47810;PMS5003;33575;52.600;7.318;2023-04-24T12:03:59;9;8;
47810;PMS5003;33575;52.600;7.318;2023-04-24T12:06:24;10;10;
47810;PMS5003;33575;52.600;7.318;2023-04-24T12:08:58;8;8;
47810;PMS5003;33575;52.600;7.318;2023-04-24T12:11:25;9;9;
47810;PMS5003;33575;52.600;7.318;2023-04-24T12:13:55;10;10;
47810;PMS5003;33575;52.600;7.318;2023-04-24T12:16:26;10;10;
47810;PMS5003;33575;52.600;7.318;2023-04-24T12:18:57;12;11;
47810;PMS5003;33575;52.600;7.318;2023-04-24T12:21:27;13;11;
47810;PMS5003;33575;52.600;7.318;2023-04-24T12:23:58;12;9;
47810;PMS5003;33575;52.600;7.318;2023-04-24T12:26:29;11;8;
47810;PMS5003;33575;52.600;7.318;2023-04-24T12:29:00;10;8;
47810;PMS5003;33575;52.600;7.318;2023-04-24T12:31:30;8;8;
47810;PMS5003;33575;52.600;7.318;2023-04-24T12:34:00;7;7;
47810;PMS5003;33575;52.600;7.318;2023-04-24T12:36:31;10;9;
47810;PMS5003;33575;52.600;7.318;2023-04-24T12:39:01;12;8;
47810;PMS5003;33575;52.600;7.318;2023-04-24T12:41:32;9;9;
47810;PMS5003;33575;52.600;7.318;2023-04-24T12:44:02;9;6;
47810;PMS5003;33575;52.600;7.318;2023-04-24T12:46:33;7;6;
47810;PMS5003;33575;52.600;7.318;2023-04-24T12:49:04;9;9;
47810;PMS5003;33575;52.600;7.318;2023-04-24T12:51:34;10;8;
47810;PMS5003;33575;52.600;7.318;2023-04-24T12:54:05;8;8;
47810;PMS5003;33575;52.600;7.318;2023-04-24T12:56:35;6;4;
47810;PMS5003;33575;52.600;7.318;2023-04-24T12:59:06;5;5;
47810;PMS5003;33575;52.600;7.318;2023-04-24T13:01:37;7;6;
47810;PMS5003;33575;52.600;7.318;2023-04-24T13:04:08;5;4;
47810;PMS5003;33575;52.600;7.318;2023-04-24T13:06:38;7;5;
47810;PMS5003;33575;52.600;7.318;2023-04-24T13:09:09;5;5;
47810;PMS5003;33575;52.600;7.318;2023-04-24T13:11:39;5;5;
47810;PMS5003;33575;52.600;7.318;2023-04-24T13:14:10;6;5;
47810;PMS5003;33575;52.600;7.318;2023-04-24T13:16:40;8;4;
47810;PMS5003;33575;52.600;7.318;2023-04-24T13:19:11;4;4;
47810;PMS5003;33575;52.600;7.318;2023-04-24T13:21:41;4;4;
47810;PMS5003;33575;52.600;7.318;2023-04-24T13:24:12;4;4;
47810;PMS5003;33575;52.600;7.318;2023-04-24T13:26:43;5;4;
47810;PMS5003;33575;52.600;7.318;2023-04-24T13:29:13;3;3;
47810;PMS5003;33575;52.600;7.318;2023-04-24T13:31:44;4;4;
47810;PMS5003;33575;52.600;7.318;2023-04-24T13:34:14;4;3;
47810;PMS5003;33575;52.600;7.318;2023-04-24T13:36:45;2;2;
47810;PMS5003;33575;52.600;7.318;2023-04-24T13:39:16;2;2;
47810;PMS5003;33575;52.600;7.318;2023-04-24T13:41:47;3;3;
47810;PMS5003;33575;52.600;7.318;2023-04-24T13:44:17;2;2;
47810;PMS5003;33575;52.600;7.318;2023-04-24T13:46:48;2;2;
47810;PMS5003;33575;52.600;7.318;2023-04-24T13:49:18;2;2;
47810;PMS5003;33575;52.600;7.318;2023-04-24T13:51:49;2;2;
47810;PMS5003;33575;52.600;7.318;2023-04-24T13:54:19;3;2;
47810;PMS5003;33575;52.600;7.318;2023-04-24T13:56:50;4;4;
47810;PMS5003;33575;52.600;7.318;2023-04-24T13:59:20;3;2;
47810;PMS5003;33575;52.600;7.318;2023-04-24T14:01:51;3;3;
47810;PMS5003;33575;52.600;7.318;2023-04-24T14:04:22;3;3;
47810;PMS5003;33575;52.600;7.318;2023-04-24T14:06:52;3;3;
47810;PMS5003;33575;52.600;7.318;2023-04-24T14:09:23;4;3;
47810;PMS5003;33575;52.600;7.318;2023-04-24T14:11:53;4;3;
47810;PMS5003;33575;52.600;7.318;2023-04-24T14:14:24;4;3;
47810;PMS5003;33575;52.600;7.318;2023-04-24T14:16:55;4;1;
47810;PMS5003;33575;52.600;7.318;2023-04-24T14:19:25;2;2;
47810;PMS5003;33575;52.600;7.318;2023-04-24T14:21:56;4;3;
47810;PMS5003;33575;52.600;7.318;2023-04-24T14:24:26;3;3;
47810;PMS5003;33575;52.600;7.318;2023-04-24T14:26:57;3;3;
47810;PMS5003;33575;52.600;7.318;2023-04-24T14:29:28;2;2;
47810;PMS5003;33575;52.600;7.318;2023-04-24T14:31:59;3;2;
47810;PMS5003;33575;52.600;7.318;2023-04-24T14:34:29;3;2;
47810;PMS5003;33575;52.600;7.318;2023-04-24T14:37:00;4;3;
47810;PMS5003;33575;52.600;7.318;2023-04-24T14:39:30;4;3;
47810;PMS5003;33575;52.600;7.318;2023-04-24T14:42:01;3;2;
47810;PMS5003;33575;52.600;7.318;2023-04-24T14:44:31;4;3;
47810;PMS5003;33575;52.600;7.318;2023-04-24T14:47:02;4;4;
47810;PMS5003;33575;52.600;7.318;2023-04-24T14:49:33;7;5;
47810;PMS5003;33575;52.600;7.318;2023-04-24T14:52:03;4;4;
47810;PMS5003;33575;52.600;7.318;2023-04-24T14:54:34;2;2;
47810;PMS5003;33575;52.600;7.318;2023-04-24T14:57:04;5;4;
47810;PMS5003;33575;52.600;7.318;2023-04-24T14:59:35;4;4;
47810;PMS5003;33575;52.600;7.318;2023-04-24T15:02:10;4;3;
47810;PMS5003;33575;52.600;7.318;2023-04-24T15:04:37;4;3;
47810;PMS5003;33575;52.600;7.318;2023-04-24T15:07:07;2;2;
47810;PMS5003;33575;52.600;7.318;2023-04-24T15:09:37;2;2;
47810;PMS5003;33575;52.600;7.318;2023-04-24T15:12:08;4;4;
47810;PMS5003;33575;52.600;7.318;2023-04-24T15:14:39;4;4;
47810;PMS5003;33575;52.600;7.318;2023-04-24T15:17:09;4;3;
47810;PMS5003;33575;52.600;7.318;2023-04-24T15:19:40;3;3;
47810;PMS5003;33575;52.600;7.318;2023-04-24T15:22:12;2;2;
47810;PMS5003;33575;52.600;7.318;2023-04-24T15:24:41;3;3;
47810;PMS5003;33575;52.600;7.318;2023-04-24T15:27:12;3;3;
47810;PMS5003;33575;52.600;7.318;2023-04-24T15:29:42;7;4;
47810;PMS5003;33575;52.600;7.318;2023-04-24T15:32:13;6;4;
47810;PMS5003;33575;52.600;7.318;2023-04-24T15:34:44;7;7;
47810;PMS5003;33575;52.600;7.318;2023-04-24T15:37:14;5;5;
47810;PMS5003;33575;52.600;7.318;2023-04-24T15:39:45;4;4;
47810;PMS5003;33575;52.600;7.318;2023-04-24T15:42:15;4;4;
47810;PMS5003;33575;52.600;7.318;2023-04-24T15:44:46;4;4;
47810;PMS5003;33575;52.600;7.318;2023-04-24T15:47:16;3;3;
47810;PMS5003;33575;52.600;7.318;2023-04-24T15:49:47;7;4;
47810;PMS5003;33575;52.600;7.318;2023-04-24T15:52:18;5;4;
47810;PMS5003;33575;52.600;7.318;2023-04-24T15:54:48;6;4;
47810;PMS5003;33575;52.600;7.318;2023-04-24T15:57:19;4;4;
47810;PMS5003;33575;52.600;7.318;2023-04-24T15:59:50;6;3;
47810;PMS5003;33575;52.600;7.318;2023-04-24T16:02:20;4;4;
47810;PMS5003;33575;52.600;7.318;2023-04-24T16:04:51;5;5;
47810;PMS5003;33575;52.600;7.318;2023-04-24T16:07:21;7;5;
47810;PMS5003;33575;52.600;7.318;2023-04-24T16:09:52;6;5;
47810;PMS5003;33575;52.600;7.318;2023-04-24T16:12:23;7;6;
47810;PMS5003;33575;52.600;7.318;2023-04-24T16:14:53;5;5;
47810;PMS5003;33575;52.600;7.318;2023-04-24T16:17:24;6;5;
47810;PMS5003;33575;52.600;7.318;2023-04-24T16:19:54;7;5;
47810;PMS5003;33575;52.600;7.318;2023-04-24T16:22:25;10;8;
47810;PMS5003;33575;52.600;7.318;2023-04-24T16:24:56;5;5;
47810;PMS5003;33575;52.600;7.318;2023-04-24T16:27:26;6;6;
47810;PMS5003;33575;52.600;7.318;2023-04-24T16:29:57;7;5;
47810;PMS5003;33575;52.600;7.318;2023-04-24T16:32:28;6;5;
47810;PMS5003;33575;52.600;7.318;2023-04-24T16:34:58;4;4;
47810;PMS5003;33575;52.600;7.318;2023-04-24T16:37:29;5;5;
47810;PMS5003;33575;52.600;7.318;2023-04-24T16:39:59;5;4;
47810;PMS5003;33575;52.600;7.318;2023-04-24T16:42:30;4;4;
47810;PMS5003;33575;52.600;7.318;2023-04-24T16:45:01;4;4;
47810;PMS5003;33575;52.600;7.318;2023-04-24T16:47:31;4;4;
47810;PMS5003;33575;52.600;7.318;2023-04-24T16:50:02;5;5;
47810;PMS5003;33575;52.600;7.318;2023-04-24T16:52:33;6;5;
47810;PMS5003;33575;52.600;7.318;2023-04-24T16:55:03;5;5;
47810;PMS5003;33575;52.600;7.318;2023-04-24T16:57:34;6;5;
47810;PMS5003;33575;52.600;7.318;2023-04-24T17:00:05;6;6;
47810;PMS5003;33575;52.600;7.318;2023-04-24T17:02:35;6;4;
47810;PMS5003;33575;52.600;7.318;2023-04-24T17:05:06;4;4;
47810;PMS5003;33575;52.600;7.318;2023-04-24T17:07:36;5;5;
47810;PMS5003;33575;52.600;7.318;2023-04-24T17:10:07;5;4;
47810;PMS5003;33575;52.600;7.318;2023-04-24T17:12:37;11;10;
47810;PMS5003;33575;52.600;7.318;2023-04-24T17:15:08;8;6;
47810;PMS5003;33575;52.600;7.318;2023-04-24T17:17:39;8;7;